createdAt,value
2023-05-14T00:02:22.909Z,7.95
2023-05-14T00:04:50.600Z,8.85
2023-05-14T00:07:18.375Z,8.05
2023-05-14T00:09:46.233Z,7.90
2023-05-14T00:12:13.992Z,9.18
2023-05-14T00:14:41.742Z,8.70
2023-05-14T00:17:09.503Z,6.95
2023-05-14T00:19:41.807Z,8.38
2023-05-14T00:22:09.707Z,7.30
2023-05-14T00:24:38.129Z,7.75
2023-05-14T00:27:06.523Z,7.28
2023-05-14T00:29:34.209Z,6.55
2023-05-14T00:32:01.966Z,8.60
2023-05-14T00:34:29.683Z,7.95
2023-05-14T00:36:58.779Z,9.48
2023-05-14T00:39:26.608Z,8.13
2023-05-14T00:41:54.387Z,8.23
2023-05-14T00:44:22.077Z,9.73
2023-05-14T00:46:49.969Z,8.40
2023-05-14T00:49:18.614Z,8.43
2023-05-14T00:51:47.098Z,6.63
2023-05-14T00:54:17.799Z,7.50
2023-05-14T00:56:46.752Z,11.18
2023-05-14T00:59:14.758Z,9.57
2023-05-14T01:01:42.573Z,10.15
2023-05-14T01:04:11.629Z,10.63
2023-05-14T01:06:48.430Z,9.02
2023-05-14T01:09:24.015Z,9.48
2023-05-14T01:11:56.972Z,9.07
2023-05-14T01:14:34.329Z,10.85
2023-05-14T01:17:06.137Z,7.97
2023-05-14T01:19:40.558Z,7.60
2023-05-14T01:22:09.882Z,6.57
2023-05-14T01:24:37.762Z,9.90
2023-05-14T01:27:10.895Z,8.73
2023-05-14T01:29:41.576Z,8.93
2023-05-14T01:32:10.269Z,8.77
2023-05-14T01:34:40.986Z,9.23
2023-05-14T01:37:12.872Z,9.13
2023-05-14T01:39:43.536Z,10.65
2023-05-14T01:42:11.912Z,10.15
2023-05-14T01:44:39.598Z,9.52
2023-05-14T01:47:07.334Z,10.50
2023-05-14T01:49:35.018Z,9.88
2023-05-14T01:52:02.758Z,11.32
2023-05-14T01:54:31.900Z,9.65
2023-05-14T01:56:59.634Z,11.13
2023-05-14T01:59:29.429Z,9.30
2023-05-14T02:01:57.234Z,8.93
2023-05-14T02:04:24.996Z,11.13
2023-05-14T02:06:52.812Z,10.50
2023-05-14T02:09:20.536Z,10.90
2023-05-14T02:11:49.686Z,10.30
2023-05-14T02:14:17.386Z,11.30
2023-05-14T02:16:45.164Z,11.27
2023-05-14T02:19:12.962Z,9.93
2023-05-14T02:21:41.116Z,10.98
2023-05-14T02:24:09.149Z,10.65
2023-05-14T02:26:36.853Z,11.70
2023-05-14T02:29:05.916Z,12.60
2023-05-14T02:31:33.673Z,11.10
2023-05-14T02:34:02.407Z,12.05
2023-05-14T02:36:30.117Z,13.07
2023-05-14T02:39:01.047Z,13.07
2023-05-14T02:41:28.975Z,12.38
2023-05-14T02:43:56.715Z,12.48
2023-05-14T02:46:25.876Z,12.15
2023-05-14T02:48:53.608Z,10.90
2023-05-14T02:51:21.922Z,9.98
2023-05-14T02:53:50.042Z,11.40
2023-05-14T02:56:17.702Z,11.30
2023-05-14T02:58:45.417Z,11.80
2023-05-14T03:01:13.199Z,11.73
2023-05-14T03:03:42.628Z,14.68
2023-05-14T03:06:10.960Z,14.55
2023-05-14T03:08:38.648Z,11.55
2023-05-14T03:11:06.948Z,14.02
2023-05-14T03:13:34.624Z,13.77
2023-05-14T03:16:02.345Z,13.32
2023-05-14T03:18:30.754Z,14.80
2023-05-14T03:20:59.908Z,12.65
2023-05-14T03:23:27.878Z,13.45
2023-05-14T03:25:55.666Z,12.77
2023-05-14T03:28:23.351Z,14.70
2023-05-14T03:30:51.097Z,12.98
2023-05-14T03:33:18.921Z,12.93
2023-05-14T03:35:46.609Z,14.65
2023-05-14T03:38:15.710Z,11.60
2023-05-14T03:40:43.586Z,13.85
2023-05-14T03:43:11.316Z,14.57
2023-05-14T03:45:40.880Z,13.85
2023-05-14T03:48:08.743Z,12.57
2023-05-14T03:50:36.648Z,12.68
2023-05-14T03:53:04.390Z,13.15
2023-05-14T03:55:33.412Z,13.77
2023-05-14T03:58:02.016Z,15.38
2023-05-14T04:00:29.855Z,12.45
2023-05-14T04:02:57.629Z,14.07
2023-05-14T04:05:25.432Z,14.57
2023-05-14T04:07:53.539Z,13.10
2023-05-14T04:10:21.527Z,14.68
2023-05-14T04:12:50.787Z,14.38
2023-05-14T04:15:18.524Z,12.75
2023-05-14T04:17:46.288Z,13.80
2023-05-14T04:20:14.053Z,13.38
2023-05-14T04:22:41.790Z,12.38
2023-05-14T04:25:09.939Z,14.57
2023-05-14T04:27:37.682Z,13.70
2023-05-14T04:30:08.419Z,14.13
2023-05-14T04:32:36.458Z,13.57
2023-05-14T04:35:04.505Z,13.68
2023-05-14T04:37:32.989Z,12.38
2023-05-14T04:40:00.926Z,13.50
2023-05-14T04:42:28.599Z,12.38
2023-05-14T04:44:56.350Z,12.20
2023-05-14T04:47:26.521Z,14.43
2023-05-14T04:49:54.234Z,14.35
2023-05-14T04:52:21.943Z,13.40
2023-05-14T04:54:49.703Z,14.15
2023-05-14T04:57:17.494Z,12.77
2023-05-14T04:59:45.222Z,12.30
2023-05-14T05:02:12.893Z,12.20
2023-05-14T05:04:41.965Z,13.25
2023-05-14T05:07:09.730Z,13.23
2023-05-14T05:09:37.485Z,15.38
2023-05-14T05:12:05.771Z,14.35
2023-05-14T05:14:33.546Z,12.27
2023-05-14T05:17:01.330Z,13.52
2023-05-14T05:19:39.453Z,13.35
2023-05-14T05:22:11.918Z,13.77
2023-05-14T05:24:39.655Z,14.40
2023-05-14T05:27:07.379Z,13.55
2023-05-14T05:29:36.214Z,13.55
2023-05-14T05:32:04.088Z,14.48
2023-05-14T05:34:31.808Z,13.43
2023-05-14T05:36:59.611Z,12.07
2023-05-14T05:39:34.546Z,15.60
2023-05-14T05:42:02.897Z,14.27
2023-05-14T05:44:30.734Z,13.98
2023-05-14T05:46:58.566Z,13.35
2023-05-14T05:49:26.404Z,13.98
2023-05-14T05:51:54.189Z,16.33
2023-05-14T05:54:21.908Z,15.18
2023-05-14T05:56:50.981Z,14.27
2023-05-14T05:59:18.662Z,12.93
2023-05-14T06:01:46.672Z,12.52
2023-05-14T06:04:14.454Z,13.55
2023-05-14T06:06:42.408Z,14.10
2023-05-14T06:09:10.123Z,11.90
2023-05-14T06:11:37.891Z,12.52
2023-05-14T06:14:06.949Z,14.35
2023-05-14T06:16:34.795Z,14.80
2023-05-14T06:19:02.568Z,12.27
2023-05-14T06:21:30.414Z,14.40
2023-05-14T06:23:58.144Z,13.40
2023-05-14T06:26:25.996Z,13.18
2023-05-14T06:28:53.797Z,15.25
2023-05-14T06:31:22.946Z,13.43
2023-05-14T06:33:50.638Z,15.07
2023-05-14T06:36:18.373Z,14.48
2023-05-14T06:38:46.200Z,13.75
2023-05-14T06:41:14.055Z,12.80
2023-05-14T06:43:41.718Z,12.57
2023-05-14T06:46:09.419Z,14.85
2023-05-14T06:48:38.513Z,13.50
2023-05-14T06:51:06.450Z,12.45
2023-05-14T06:53:34.118Z,14.02
2023-05-14T06:56:01.828Z,12.15
2023-05-14T06:58:29.487Z,14.60
2023-05-14T07:00:57.357Z,13.57
2023-05-14T07:03:25.132Z,11.65
2023-05-14T07:05:54.294Z,12.85
2023-05-14T07:08:22.317Z,13.60
2023-05-14T07:10:50.008Z,11.25
2023-05-14T07:13:17.755Z,13.70
2023-05-14T07:15:45.466Z,12.73
2023-05-14T07:18:13.296Z,11.82
2023-05-14T07:20:41.091Z,12.77
2023-05-14T07:23:10.127Z,12.63
2023-05-14T07:25:37.827Z,11.07
2023-05-14T07:28:05.594Z,13.40
2023-05-14T07:30:33.263Z,11.85
2023-05-14T07:33:00.966Z,10.80
2023-05-14T07:35:28.729Z,12.52
2023-05-14T07:37:56.450Z,11.70
2023-05-14T07:40:26.064Z,12.70
2023-05-14T07:42:54.001Z,12.05
2023-05-14T07:45:21.698Z,12.48
2023-05-14T07:47:51.869Z,14.65
2023-05-14T07:50:20.112Z,13.45
2023-05-14T07:52:47.776Z,12.50
2023-05-14T07:55:15.576Z,11.40
2023-05-14T07:57:44.731Z,13.63
2023-05-14T08:00:13.544Z,11.45
2023-05-14T08:02:42.490Z,13.15
2023-05-14T08:05:10.817Z,12.73
2023-05-14T08:07:38.619Z,12.15
2023-05-14T08:10:08.030Z,14.20
2023-05-14T08:12:35.813Z,10.82
2023-05-14T08:15:05.815Z,10.73
2023-05-14T08:17:33.547Z,11.35
2023-05-14T08:20:01.411Z,10.05
2023-05-14T08:22:29.336Z,11.38
2023-05-14T08:24:57.085Z,10.65
2023-05-14T08:27:24.776Z,12.45
2023-05-14T08:29:52.624Z,11.00
2023-05-14T08:32:23.846Z,9.65
2023-05-14T08:34:52.533Z,9.68
2023-05-14T08:37:20.418Z,10.70
2023-05-14T08:39:48.202Z,9.95
2023-05-14T08:42:19.226Z,10.18
2023-05-14T08:44:50.393Z,9.93
2023-05-14T08:47:19.920Z,9.55
2023-05-14T08:49:53.507Z,10.48
2023-05-14T08:52:23.306Z,8.52
2023-05-14T08:54:54.007Z,10.48
2023-05-14T08:57:24.867Z,9.55
2023-05-14T08:59:52.665Z,10.43
2023-05-14T09:02:24.046Z,10.07
2023-05-14T09:04:56.752Z,8.70
2023-05-14T09:07:24.923Z,8.80
2023-05-14T09:09:53.397Z,10.93
2023-05-14T09:12:21.632Z,9.15
2023-05-14T09:14:50.698Z,9.13
2023-05-14T09:17:19.478Z,8.70
2023-05-14T09:19:49.384Z,10.07
2023-05-14T09:22:19.023Z,10.45
2023-05-14T09:24:47.362Z,9.98
2023-05-14T09:27:21.350Z,9.10
2023-05-14T09:29:49.462Z,9.52
2023-05-14T09:32:17.316Z,9.98
2023-05-14T09:34:45.049Z,9.10
2023-05-14T09:37:12.839Z,10.65
2023-05-14T09:39:41.977Z,10.13
2023-05-14T09:42:09.692Z,8.82
2023-05-14T09:44:38.121Z,11.13
2023-05-14T09:47:06.510Z,10.02
2023-05-14T09:49:35.180Z,8.27
2023-05-14T09:52:03.709Z,9.75
2023-05-14T09:54:33.106Z,9.05
2023-05-14T09:57:02.198Z,7.18
2023-05-14T09:59:29.887Z,8.68
2023-05-14T10:01:58.920Z,8.30
2023-05-14T10:04:26.879Z,9.90
2023-05-14T10:06:56.169Z,8.90
2023-05-14T10:09:26.347Z,9.50
2023-05-14T10:12:00.338Z,7.43
2023-05-14T10:14:37.543Z,9.30
2023-05-14T10:17:07.322Z,8.43
2023-05-14T10:19:36.039Z,8.48
2023-05-14T10:22:08.080Z,8.70
2023-05-14T10:24:38.796Z,9.25
2023-05-14T10:27:07.047Z,8.73
2023-05-14T10:29:38.282Z,9.43
2023-05-14T10:32:07.704Z,6.82
2023-05-14T10:34:41.237Z,7.68
2023-05-14T10:37:11.033Z,7.22
2023-05-14T10:39:46.179Z,7.93
2023-05-14T10:42:17.171Z,8.50
2023-05-14T10:44:51.385Z,8.48
2023-05-14T10:47:19.421Z,8.35
2023-05-14T10:49:50.133Z,8.77
2023-05-14T10:52:22.052Z,8.52
2023-05-14T10:54:51.854Z,6.80
2023-05-14T10:57:20.838Z,8.32
2023-05-14T10:59:53.251Z,8.75
2023-05-14T11:02:23.467Z,7.82
2023-05-14T11:04:59.259Z,8.48
2023-05-14T11:07:30.001Z,5.57
2023-05-14T11:10:02.967Z,6.53
2023-05-14T11:12:31.125Z,6.15
2023-05-14T11:15:02.303Z,7.15
2023-05-14T11:17:31.906Z,7.90
2023-05-14T11:20:00.259Z,5.70
2023-05-14T11:22:28.402Z,6.72
2023-05-14T11:24:56.280Z,5.85
2023-05-14T11:27:24.223Z,6.35
2023-05-14T11:29:52.177Z,6.40
2023-05-14T11:32:21.519Z,7.47
2023-05-14T11:34:49.220Z,7.47
2023-05-14T11:37:17.903Z,5.85
2023-05-14T11:39:49.988Z,6.55
2023-05-14T11:42:19.545Z,5.38
2023-05-14T11:44:49.016Z,5.63
2023-05-14T11:47:18.279Z,5.18
2023-05-14T11:49:47.787Z,6.72
2023-05-14T11:52:19.517Z,5.93
2023-05-14T11:54:47.793Z,5.20
2023-05-14T11:57:17.811Z,5.72
2023-05-14T11:59:46.339Z,5.90
2023-05-14T12:02:15.759Z,5.78
2023-05-14T12:04:45.463Z,5.18
2023-05-14T12:07:16.875Z,6.70
2023-05-14T12:09:49.524Z,6.40
2023-05-14T12:12:19.405Z,5.55
2023-05-14T12:14:47.340Z,4.85
2023-05-14T12:17:16.834Z,4.53
2023-05-14T12:19:45.807Z,5.28
2023-05-14T12:22:17.264Z,5.68
2023-05-14T12:24:53.466Z,5.13
2023-05-14T12:27:23.203Z,5.43
2023-05-14T12:29:53.410Z,5.35
2023-05-14T12:32:21.228Z,4.45
2023-05-14T12:34:48.985Z,5.18
2023-05-14T12:37:19.092Z,4.45
2023-05-14T12:39:46.801Z,4.88
2023-05-14T12:42:15.558Z,4.55
2023-05-14T12:44:43.511Z,4.57
2023-05-14T12:47:11.424Z,5.47
2023-05-14T12:49:39.196Z,4.93
2023-05-14T12:52:25.741Z,5.25
2023-05-14T12:54:56.400Z,5.20
2023-05-14T12:57:24.171Z,4.78
2023-05-14T12:59:51.885Z,4.72
2023-05-14T13:02:19.652Z,5.22
2023-05-14T13:04:47.340Z,4.32
2023-05-14T13:07:15.169Z,4.65
2023-05-14T13:09:42.909Z,5.57
2023-05-14T13:12:12.128Z,4.78
2023-05-14T13:14:39.841Z,5.50
2023-05-14T13:17:08.205Z,4.75
2023-05-14T13:19:36.079Z,5.60
2023-05-14T13:22:03.840Z,5.28
2023-05-14T13:24:31.546Z,4.97
2023-05-14T13:26:59.442Z,5.72
2023-05-14T13:29:31.491Z,4.35
2023-05-14T13:31:59.187Z,4.60
2023-05-14T13:34:27.051Z,4.65
2023-05-14T13:36:54.780Z,5.80
2023-05-14T13:39:26.801Z,4.57
2023-05-14T13:41:56.669Z,5.53
2023-05-14T13:44:24.471Z,5.40
2023-05-14T13:46:53.950Z,5.70
2023-05-14T13:49:21.787Z,6.10
2023-05-14T13:51:49.452Z,5.35
2023-05-14T13:54:17.135Z,4.68
2023-05-14T13:56:45.054Z,5.70
2023-05-14T13:59:12.766Z,6.03
2023-05-14T14:01:40.519Z,6.15
2023-05-14T14:04:10.002Z,5.07
2023-05-14T14:06:37.751Z,5.03
2023-05-14T14:09:05.464Z,5.93
2023-05-14T14:11:33.221Z,5.28
2023-05-14T14:14:00.937Z,4.55
2023-05-14T14:16:28.726Z,5.40
2023-05-14T14:18:57.422Z,4.45
2023-05-14T14:21:26.558Z,5.38
2023-05-14T14:23:54.423Z,4.65
2023-05-14T14:26:22.352Z,6.07
2023-05-14T14:28:50.084Z,5.63
2023-05-14T14:31:18.496Z,4.07
2023-05-14T14:33:46.248Z,5.82
2023-05-14T14:36:13.995Z,4.93
2023-05-14T14:38:43.091Z,4.38
2023-05-14T14:41:10.948Z,4.38
2023-05-14T14:43:40.251Z,4.57
2023-05-14T14:46:08.738Z,4.57
2023-05-14T14:48:37.850Z,3.92
2023-05-14T14:51:06.191Z,3.75
2023-05-14T14:53:34.661Z,4.30
2023-05-14T14:56:03.883Z,3.60
2023-05-14T14:58:32.089Z,3.30
2023-05-14T15:01:00.112Z,3.20
2023-05-14T15:03:28.009Z,3.25
2023-05-14T15:05:55.875Z,4.28
2023-05-14T15:08:26.966Z,2.97
2023-05-14T15:10:54.832Z,2.90
2023-05-14T15:13:24.544Z,3.60
2023-05-14T15:15:52.951Z,3.47
2023-05-14T15:18:20.910Z,3.08
2023-05-14T15:20:48.693Z,2.80
2023-05-14T15:23:16.397Z,2.55
2023-05-14T15:25:44.283Z,3.63
2023-05-14T15:28:12.138Z,3.47
2023-05-14T15:30:41.186Z,3.83
2023-05-14T15:33:09.486Z,4.47
2023-05-14T15:35:37.595Z,4.05
2023-05-14T15:38:05.540Z,3.65
2023-05-14T15:40:34.949Z,4.15
2023-05-14T15:43:02.922Z,3.65
2023-05-14T15:45:30.704Z,3.97
2023-05-14T15:47:59.868Z,4.30
2023-05-14T15:50:27.733Z,3.85
2023-05-14T15:52:55.443Z,3.85
2023-05-14T15:55:23.230Z,2.90
2023-05-14T15:57:50.990Z,3.35
2023-05-14T16:00:19.582Z,3.05
2023-05-14T16:02:47.365Z,3.53
2023-05-14T16:05:16.537Z,3.20
2023-05-14T16:07:44.365Z,3.28
2023-05-14T16:10:12.428Z,3.50
2023-05-14T16:12:40.188Z,3.70
2023-05-14T16:15:08.939Z,3.28
2023-05-14T16:17:36.725Z,3.22
2023-05-14T16:20:05.798Z,2.50
2023-05-14T16:22:36.225Z,2.75
2023-05-14T16:25:04.801Z,2.38
2023-05-14T16:27:32.778Z,3.17
2023-05-14T16:30:00.458Z,2.75
2023-05-14T16:32:28.214Z,3.13
2023-05-14T16:34:56.529Z,3.40
2023-05-14T16:37:24.422Z,3.90
2023-05-14T16:39:53.565Z,3.10
2023-05-14T16:42:21.428Z,4.50
2023-05-14T16:44:49.137Z,4.78
2023-05-14T16:47:16.891Z,4.03
2023-05-14T16:49:44.588Z,4.43
2023-05-14T16:52:12.309Z,3.60
2023-05-14T16:54:40.053Z,4.00
2023-05-14T16:57:09.170Z,3.58
2023-05-14T16:59:36.909Z,3.75
2023-05-14T17:02:04.833Z,4.85
2023-05-14T17:04:33.439Z,4.82
2023-05-14T17:07:01.657Z,4.82
2023-05-14T17:09:29.334Z,4.45
2023-05-14T17:11:57.036Z,4.65
2023-05-14T17:14:26.263Z,4.30
2023-05-14T17:16:54.769Z,3.20
2023-05-14T17:19:22.557Z,4.07
2023-05-14T17:21:50.307Z,3.53
2023-05-14T17:24:18.016Z,3.80
2023-05-14T17:26:45.761Z,5.25
2023-05-14T17:29:13.504Z,4.38
2023-05-14T17:31:43.102Z,4.68
2023-05-14T17:34:10.793Z,4.78
2023-05-14T17:36:38.498Z,4.68
2023-05-14T17:39:06.228Z,4.47
2023-05-14T17:41:33.986Z,5.40
2023-05-14T17:44:01.746Z,5.60
2023-05-14T17:46:29.539Z,4.95
2023-05-14T17:48:58.884Z,5.45
2023-05-14T17:51:26.559Z,4.93
2023-05-14T17:53:54.320Z,5.05
2023-05-14T17:56:22.088Z,4.50
2023-05-14T17:58:50.712Z,5.18
2023-05-14T18:01:19.026Z,3.40
2023-05-14T18:03:46.871Z,4.03
2023-05-14T18:06:16.809Z,3.90
2023-05-14T18:08:44.609Z,3.20
2023-05-14T18:11:12.345Z,4.18
2023-05-14T18:13:40.230Z,4.18
2023-05-14T18:16:08.753Z,3.28
2023-05-14T18:18:36.596Z,4.15
2023-05-14T18:21:04.497Z,5.07
2023-05-14T18:23:33.765Z,4.13
2023-05-14T18:26:01.464Z,5.00
2023-05-14T18:28:29.350Z,5.00
2023-05-14T18:30:57.133Z,5.00
2023-05-14T18:33:24.870Z,5.30
2023-05-14T18:35:53.469Z,5.45
2023-05-14T18:38:21.150Z,5.53
2023-05-14T18:40:50.416Z,4.78
2023-05-14T18:43:18.654Z,5.80
2023-05-14T18:45:47.849Z,5.82
2023-05-14T18:48:16.178Z,5.65
2023-05-14T18:50:43.964Z,5.97
2023-05-14T18:53:11.711Z,6.40
2023-05-14T18:55:39.521Z,6.22
2023-05-14T18:58:09.170Z,5.47
2023-05-14T19:00:36.900Z,6.88
2023-05-14T19:03:04.940Z,6.88
2023-05-14T19:05:32.807Z,6.53
2023-05-14T19:08:00.900Z,6.82
2023-05-14T19:10:28.748Z,7.03
2023-05-14T19:12:56.492Z,6.65
2023-05-14T19:15:26.135Z,6.32
2023-05-14T19:17:54.379Z,7.03
2023-05-14T19:20:22.107Z,6.55
2023-05-14T19:22:49.795Z,6.88
2023-05-14T19:25:17.607Z,6.07
2023-05-14T19:27:47.633Z,6.00
2023-05-14T19:30:15.783Z,6.00
2023-05-14T19:32:44.859Z,7.53
2023-05-14T19:35:12.676Z,7.78
2023-05-14T19:37:40.405Z,7.90
2023-05-14T19:40:09.158Z,8.82
2023-05-14T19:42:36.815Z,8.65
2023-05-14T19:45:04.956Z,8.45
2023-05-14T19:47:33.126Z,8.10
2023-05-14T19:50:02.218Z,8.00
2023-05-14T19:52:29.879Z,7.40
2023-05-14T19:54:57.609Z,7.32
2023-05-14T19:57:26.560Z,7.07
2023-05-14T19:59:54.304Z,7.75
2023-05-14T20:02:22.713Z,6.60
2023-05-14T20:04:50.511Z,7.30
2023-05-14T20:07:20.161Z,6.00
2023-05-14T20:09:47.919Z,5.60
2023-05-14T20:12:16.766Z,6.20
2023-05-14T20:14:44.827Z,6.68
2023-05-14T20:17:12.781Z,6.40
2023-05-14T20:19:41.223Z,8.32
2023-05-14T20:22:08.973Z,8.18
2023-05-14T20:24:38.526Z,8.27
2023-05-14T20:27:06.623Z,8.60
2023-05-14T20:29:34.490Z,10.90
2023-05-14T20:32:02.317Z,9.63
2023-05-14T20:34:30.090Z,11.07
2023-05-14T20:36:58.110Z,10.32
2023-05-14T20:39:25.885Z,9.32
2023-05-14T20:41:54.982Z,11.45
2023-05-14T20:44:22.668Z,9.95
2023-05-14T20:46:50.506Z,9.57
2023-05-14T20:49:18.361Z,10.75
2023-05-14T20:51:46.064Z,11.02
2023-05-14T20:54:13.749Z,10.77
2023-05-14T20:56:41.496Z,11.82
2023-05-14T20:59:10.606Z,10.75
2023-05-14T21:01:38.491Z,12.15
2023-05-14T21:04:06.352Z,11.95
2023-05-14T21:06:34.136Z,11.20
2023-05-14T21:09:01.892Z,11.63
2023-05-14T21:11:29.617Z,12.52
2023-05-14T21:13:57.293Z,12.07
2023-05-14T21:16:26.563Z,12.32
2023-05-14T21:18:54.401Z,10.45
2023-05-14T21:21:22.169Z,10.55
2023-05-14T21:23:50.320Z,12.25
2023-05-14T21:26:18.061Z,13.27
2023-05-14T21:28:45.733Z,11.43
2023-05-14T21:31:13.520Z,11.35
2023-05-14T21:33:42.570Z,11.95
2023-05-14T21:36:10.841Z,12.27
2023-05-14T21:38:38.715Z,11.38
2023-05-14T21:41:06.509Z,10.50
2023-05-14T21:43:34.517Z,11.88
2023-05-14T21:46:02.249Z,11.00
2023-05-14T21:48:30.052Z,11.15
2023-05-14T21:50:59.248Z,11.98
2023-05-14T21:53:27.003Z,12.10
2023-05-14T21:55:55.252Z,10.38
2023-05-14T21:58:23.044Z,11.18
2023-05-14T22:00:50.828Z,10.23
2023-05-14T22:03:18.687Z,10.27
2023-05-14T22:05:46.411Z,9.88
2023-05-14T22:08:17.344Z,10.93
2023-05-14T22:10:45.436Z,11.75
2023-05-14T22:13:13.216Z,12.88
2023-05-14T22:15:40.959Z,11.20
2023-05-14T22:18:08.858Z,11.70
2023-05-14T22:20:36.623Z,11.13
2023-05-14T22:23:04.397Z,10.75
2023-05-14T22:25:33.491Z,11.90
2023-05-14T22:28:01.202Z,10.77
2023-05-14T22:30:28.866Z,9.25
2023-05-14T22:32:56.723Z,10.73
2023-05-14T22:35:24.574Z,9.98
2023-05-14T22:37:52.548Z,11.00
2023-05-14T22:40:20.411Z,9.65
2023-05-14T22:42:49.477Z,9.75
2023-05-14T22:45:17.310Z,9.95
2023-05-14T22:47:45.060Z,7.93
2023-05-14T22:50:12.772Z,9.32
2023-05-14T22:52:41.212Z,10.32
2023-05-14T22:55:09.693Z,10.00
2023-05-14T22:57:37.498Z,9.02
2023-05-14T23:00:09.107Z,9.45
2023-05-14T23:02:36.925Z,8.15
2023-05-14T23:05:05.074Z,7.85
2023-05-14T23:07:32.750Z,9.30
2023-05-14T23:10:00.515Z,9.05
2023-05-14T23:12:28.266Z,9.48
2023-05-14T23:14:56.030Z,8.10
2023-05-14T23:17:25.148Z,10.00
2023-05-14T23:19:53.071Z,8.57
2023-05-14T23:22:20.814Z,9.82
2023-05-14T23:24:48.536Z,8.45
2023-05-14T23:27:16.427Z,8.13
2023-05-14T23:29:44.113Z,8.38
2023-05-14T23:32:12.023Z,8.32
2023-05-14T23:34:41.170Z,8.43
2023-05-14T23:37:09.078Z,6.88
2023-05-14T23:39:37.107Z,7.65
2023-05-14T23:42:04.967Z,8.20
2023-05-14T23:44:32.643Z,7.82
2023-05-14T23:47:00.597Z,7.85
2023-05-14T23:49:28.353Z,7.50
2023-05-14T23:51:57.630Z,6.78
2023-05-14T23:54:25.410Z,7.18
2023-05-14T23:56:53.400Z,7.07
2023-05-14T23:59:21.497Z,6.35
